Boreal Solo Sailor — FGG4016 — position and weather

sailwx.info

Track history (hours):
 
Tides and Currents Weather Stations Pressure Air Temp Water Temp Dewpoint Dewpoint Depression Visibility Wind Speed Wind Dir Waves Ship Positions

Boreal Solo Sailor

Last reported at 2017-Sep-16 05:38 UTC. Time now 2017-Sep-21 16:13 UTC.
Position N 46°09' W 001°10'.

Length 7 m.

Type: Sailing vessel. MMSI: 227798290.

Date/timePositionNaut miles runAvg speedWind from/ knotsBaromVisibWave heightAir tempDewpointWater temp
2017-Sep-16 05:38N 46°09' W 001°10'0 0.8
2017-Sep-16 05:26N 46°09' W 001°10'0 0.3
2017-Sep-16 05:00N 46°09' W 001°10'0 0.4
2017-Sep-16 04:30N 46°09' W 001°11'0 0.5
2017-Sep-16 03:53N 46°09' W 001°11'0 0.7
2017-Sep-16 03:29N 46°09' W 001°11'1 1.7
2017-Sep-16 03:00N 46°08' W 001°12'2 3.0
2017-Sep-16 02:26N 46°07' W 001°15'101 2.5
2017-Sep-14 09:54N 47°25' W 002°50'5 7.8
2017-Sep-14 09:14N 47°29' W 002°55'2 8.0
2017-Sep-14 09:00N 47°30' W 002°57'4 7.9
2017-Sep-14 08:30N 47°33' W 003°00'2 0.0
2017-Sep-12 15:29N 47°35' W 003°02'3 6.6
2017-Sep-12 15:00N 47°32' W 003°00'4 7.3
2017-Sep-12 14:30N 47°29' W 002°59'3 5.7
2017-Sep-12 14:00N 47°26' W 002°59'3 4.9
2017-Sep-12 13:28N 47°26' W 003°02'3 7.0
2017-Sep-12 13:00N 47°27' W 003°07'4 7.0
2017-Sep-12 12:30N 47°29' W 003°11'3 6.2
2017-Sep-12 12:00N 47°32' W 003°13'3 6.8
2017-Sep-12 11:30N 47°35' W 003°14'4 8.1
2017-Sep-12 11:00N 47°38' W 003°18'3 5.9
2017-Sep-12 10:30N 47°40' W 003°21'  
Track history (hours):
 
Tides and Currents Weather Stations Pressure Air Temp Water Temp Dewpoint Dewpoint Depression Visibility Wind Speed Wind Dir Waves Ship Positions

Boreal Solo Sailor

Last reported at 2017-Sep-16 05:38 UTC. Time now 2017-Sep-21 16:13 UTC.
Position N 46°09' W 001°10'.

Length 7 m.

Type: Sailing vessel. MMSI: 227798290.

Date/timePositionNaut miles runAvg speedWind from/ knotsBaromVisibWave heightAir tempDewpointWater temp
2017-Sep-16 05:38N 46°09' W 001°10'0 0.8
2017-Sep-16 05:26N 46°09' W 001°10'0 0.3
2017-Sep-16 05:00N 46°09' W 001°10'0 0.4
2017-Sep-16 04:30N 46°09' W 001°11'0 0.5
2017-Sep-16 03:53N 46°09' W 001°11'0 0.7
2017-Sep-16 03:29N 46°09' W 001°11'1 1.7
2017-Sep-16 03:00N 46°08' W 001°12'2 3.0
2017-Sep-16 02:26N 46°07' W 001°15'101 2.5
2017-Sep-14 09:54N 47°25' W 002°50'5 7.8
2017-Sep-14 09:14N 47°29' W 002°55'2 8.0
2017-Sep-14 09:00N 47°30' W 002°57'4 7.9
2017-Sep-14 08:30N 47°33' W 003°00'2 0.0
2017-Sep-12 15:29N 47°35' W 003°02'3 6.6
2017-Sep-12 15:00N 47°32' W 003°00'4 7.3
2017-Sep-12 14:30N 47°29' W 002°59'3 5.7
2017-Sep-12 14:00N 47°26' W 002°59'3 4.9
2017-Sep-12 13:28N 47°26' W 003°02'3 7.0
2017-Sep-12 13:00N 47°27' W 003°07'4 7.0
2017-Sep-12 12:30N 47°29' W 003°11'3 6.2
2017-Sep-12 12:00N 47°32' W 003°13'3 6.8
2017-Sep-12 11:30N 47°35' W 003°14'4 8.1
2017-Sep-12 11:00N 47°38' W 003°18'3 5.9
2017-Sep-12 10:30N 47°40' W 003°21'  

Dump ship's entire track history